This is the latest recevied weather packets stored in our database for station/object YO8PIC-4. If no packets are shown the sender has not sent any weather packets the latest 10 day(s).
| Time | Temp. | Humidity | Pressure | Rain* | Wind** | Luminosity | Snow |
|---|---|---|---|---|---|---|---|
| 1777381988 | 25.56° C | 41% | 1015.6 hPa | - | - | - | - |
| 1777381388 | 26.11° C | 43% | 1015.5 hPa | - | - | - | - |
| 1777380787 | 25.56° C | 43% | 1015.6 hPa | - | - | - | - |
| 1777380187 | 25.56° C | 44% | 1015.6 hPa | - | - | - | - |
| 1777379587 | 25° C | 46% | 1015.8 hPa | - | - | - | - |
| 1777378987 | 22.78° C | 51% | 1016 hPa | - | - | - | - |
| 1777378387 | 22.78° C | 50% | 1016.1 hPa | - | - | - | - |
| 1777377787 | 22.22° C | 50% | 1016.2 hPa | - | - | - | - |
| 1777377187 | 22.22° C | 50% | 1016.2 hPa | - | - | - | - |
| 1777376586 | 22.22° C | 51% | 1016.2 hPa | - | - | - | - |
| 1777375986 | 22.22° C | 50% | 1016.2 hPa | - | - | - | - |
| 1777375386 | 22.22° C | 51% | 1016.3 hPa | - | - | - | - |
| 1777374786 | 22.22° C | 51% | 1016.2 hPa | - | - | - | - |
| 1777374186 | 22.22° C | 51% | 1016.2 hPa | - | - | - | - |
| 1777373586 | 22.22° C | 50% | 1016.2 hPa | - | - | - | - |
| 1777372985 | 22.22° C | 50% | 1016.3 hPa | - | - | - | - |
| 1777372385 | 22.22° C | 50% | 1016.3 hPa | - | - | - | - |
| 1777371785 | 22.22° C | 51% | 1016.5 hPa | - | - | - | - |
| 1777371185 | 22.22° C | 51% | 1016.5 hPa | - | - | - | - |
| 1777370585 | 22.78° C | 51% | 1016.4 hPa | - | - | - | - |
| 1777369985 | 22.22° C | 51% | 1016.6 hPa | - | - | - | - |
| 1777369385 | 22.78° C | 51% | 1016.7 hPa | - | - | - | - |
| 1777368785 | 22.22° C | 50% | 1016.7 hPa | - | - | - | - |
| 1777368184 | 22.78° C | 51% | 1016.7 hPa | - | - | - | - |
| 1777367584 | 22.78° C | 51% | 1016.7 hPa | - | - | - | - |
* Rain since midnight (hover to see other rain measurements)
** Current wind speed in m/s (hover to see current wind gust speed)